<?xml version="1.0" encoding="UTF-8" standalone="no" ?><gpx xmlns="http://www.topografix.com/GPX/1/1" xmlns:gpxx="http://www.garmin.com/xmlschemas/GpxExtensions/v3" xmlns:gpxtrkx="http://www.garmin.com/xmlschemas/TrackStatsExtension/v1" xmlns:wptx1="http://www.garmin.com/xmlschemas/WaypointExtension/v1" xmlns:gpxtpx="http://www.garmin.com/xmlschemas/TrackPointExtension/v1" creator="Oregon 700" version="1.1" xmlns:xsi="http://www.w3.org/2001/XMLSchema-instance" xsi:schemaLocation="http://www.topografix.com/GPX/1/1 http://www.topografix.com/GPX/1/1/gpx.xsd http://www.garmin.com/xmlschemas/GpxExtensions/v3 http://www8.garmin.com/xmlschemas/GpxExtensionsv3.xsd http://www.garmin.com/xmlschemas/TrackStatsExtension/v1 http://www8.garmin.com/xmlschemas/TrackStatsExtension.xsd http://www.garmin.com/xmlschemas/WaypointExtension/v1 http://www8.garmin.com/xmlschemas/WaypointExtensionv1.xsd http://www.garmin.com/xmlschemas/TrackPointExtension/v1 http://www.garmin.com/xmlschemas/TrackPointExtensionv1.xsd"><metadata><link href="http://www.garmin.com"><text>Garmin International</text></link><time>2023-08-30T16:10:48Z</time></metadata><trk><name>Current Track: 30 AUG 2023 09:58</name><extensions><gpxx:TrackExtension><gpxx:DisplayColor>Cyan</gpxx:DisplayColor></gpxx:TrackExtension><gpxtrkx:TrackStatsExtension><gpxtrkx:Distance>4185.000</gpxtrkx:Distance><gpxtrkx:TimerTime>8449</gpxtrkx:TimerTime><gpxtrkx:TotalElapsedTime>25921</gpxtrkx:TotalElapsedTime><gpxtrkx:MovingTime>5493</gpxtrkx:MovingTime><gpxtrkx:StoppedTime>2957</gpxtrkx:StoppedTime><gpxtrkx:MovingSpeed>0.762</gpxtrkx:MovingSpeed><gpxtrkx:MaxSpeed>1.352</gpxtrkx:MaxSpeed><gpxtrkx:MaxElevation>0.000</gpxtrkx:MaxElevation><gpxtrkx:MinElevation>-28.489</gpxtrkx:MinElevation><gpxtrkx:Ascent>31.000</gpxtrkx:Ascent><gpxtrkx:Descent>29.557</gpxtrkx:Descent><gpxtrkx:AvgAscentRate>0.025</gpxtrkx:AvgAscentRate><gpxtrkx:MaxAscentRate>0.037</gpxtrkx:MaxAscentRate><gpxtrkx:AvgDescentRate>0.017</gpxtrkx:AvgDescentRate><gpxtrkx:MaxDescentRate>-0.056</gpxtrkx:MaxDescentRate><gpxtrkx:Calories>209</gpxtrkx:Calories></gpxtrkx:TrackStatsExtension></extensions><trkseg><trkpt lat="51.9424449094" lon="-2.1635728050"><ele>-6.38</ele><time>2023-08-30T08:58:47Z</time></trkpt><trkpt lat="51.9424364436" lon="-2.1635995433"><ele>-5.51</ele><time>2023-08-30T08:59:16Z</time></trkpt><trkpt lat="51.9424324203" lon="-2.1635983698"><ele>-9.40</ele><time>2023-08-30T08:59:19Z</time></trkpt><trkpt lat="51.9424324203" lon="-2.1635975316"><ele>-9.47</ele><time>2023-08-30T08:59:20Z</time></trkpt><trkpt lat="51.9424315821" lon="-2.1635945980"><ele>-4.37</ele><time>2023-08-30T08:59:22Z</time></trkpt><trkpt lat="51.9424301572" lon="-2.1635786723"><ele>-4.84</ele><time>2023-08-30T08:59:31Z</time></trkpt><trkpt lat="51.9424307439" lon="-2.1635940950"><ele>-6.40</ele><time>2023-08-30T08:59:54Z</time></trkpt><trkpt lat="51.9424126390" lon="-2.1636413690"><ele>-4.89</ele><time>2023-08-30T09:00:20Z</time></trkpt><trkpt lat="51.9423049316" lon="-2.1636028122"><ele>-6.13</ele><time>2023-08-30T09:00:46Z</time></trkpt><trkpt lat="51.9422088750" lon="-2.1636462305"><ele>-6.97</ele><time>2023-08-30T09:01:06Z</time></trkpt><trkpt lat="51.9421182666" lon="-2.1637551952"><ele>-6.99</ele><time>2023-08-30T09:01:22Z</time></trkpt><trkpt lat="51.9420241378" lon="-2.1637841966"><ele>-7.65</ele><time>2023-08-30T09:01:41Z</time></trkpt><trkpt lat="51.9419522211" lon="-2.1638631541"><ele>-8.07</ele><time>2023-08-30T09:01:56Z</time></trkpt><trkpt lat="51.9419833180" lon="-2.1640096698"><ele>-8.50</ele><time>2023-08-30T09:02:13Z</time></trkpt><trkpt lat="51.9419947173" lon="-2.1641611308"><ele>-8.65</ele><time>2023-08-30T09:02:23Z</time></trkpt><trkpt lat="51.9420322683" lon="-2.1643228177"><ele>-8.96</ele><time>2023-08-30T09:02:36Z</time></trkpt><trkpt lat="51.9420922827" lon="-2.1645222232"><ele>-9.34</ele><time>2023-08-30T09:02:53Z</time></trkpt><trkpt lat="51.9421722461" lon="-2.1646730974"><ele>-9.95</ele><time>2023-08-30T09:03:06Z</time></trkpt><trkpt lat="51.9423096254" lon="-2.1648457646"><ele>-10.50</ele><time>2023-08-30T09:03:26Z</time></trkpt><trkpt lat="51.9423390459" lon="-2.1649567410"><ele>-11.09</ele><time>2023-08-30T09:03:34Z</time></trkpt><trkpt lat="51.9424330071" lon="-2.1651232056"><ele>-11.83</ele><time>2023-08-30T09:03:50Z</time></trkpt><trkpt lat="51.9425749965" lon="-2.1652988903"><ele>-13.20</ele><time>2023-08-30T09:04:12Z</time></trkpt><trkpt lat="51.9426958635" lon="-2.1655932628"><ele>-14.30</ele><time>2023-08-30T09:04:34Z</time></trkpt><trkpt lat="51.9427271280" lon="-2.1656648442"><ele>-14.88</ele><time>2023-08-30T09:04:55Z</time></trkpt><trkpt lat="51.9427418802" lon="-2.1657612361"><ele>-15.09</ele><time>2023-08-30T09:05:13Z</time></trkpt><trkpt lat="51.9428117853" lon="-2.1659655031"><ele>-15.59</ele><time>2023-08-30T09:05:35Z</time></trkpt><trkpt lat="51.9429136254" lon="-2.1661398467"><ele>-16.23</ele><time>2023-08-30T09:05:54Z</time></trkpt><trkpt lat="51.9429613184" lon="-2.1662185527"><ele>-16.90</ele><time>2023-08-30T09:06:10Z</time></trkpt><trkpt lat="51.9429739751" lon="-2.1662401780"><ele>-17.50</ele><time>2023-08-30T09:06:31Z</time></trkpt><trkpt lat="51.9429782499" lon="-2.1662951633"><ele>-17.28</ele><time>2023-08-30T09:06:55Z</time></trkpt><trkpt lat="51.9429848716" lon="-2.1663395874"><ele>-17.46</ele><time>2023-08-30T09:07:19Z</time></trkpt><trkpt lat="51.9430502504" lon="-2.1665027831"><ele>-17.96</ele><time>2023-08-30T09:07:40Z</time></trkpt><trkpt lat="51.9431035593" lon="-2.1667119954"><ele>-18.72</ele><time>2023-08-30T09:07:57Z</time></trkpt><trkpt lat="51.9431605563" lon="-2.1669285838"><ele>-19.30</ele><time>2023-08-30T09:08:14Z</time></trkpt><trkpt lat="51.9432257675" lon="-2.1671375446"><ele>-19.69</ele><time>2023-08-30T09:08:32Z</time></trkpt><trkpt lat="51.9432401843" lon="-2.1673320048"><ele>-20.62</ele><time>2023-08-30T09:08:50Z</time></trkpt><trkpt lat="51.9433126040" lon="-2.1673004888"><ele>-21.79</ele><time>2023-08-30T09:09:09Z</time></trkpt><trkpt lat="51.9434422720" lon="-2.1671875846"><ele>-22.08</ele><time>2023-08-30T09:09:30Z</time></trkpt><trkpt lat="51.9435775559" lon="-2.1672023367"><ele>-21.76</ele><time>2023-08-30T09:09:49Z</time></trkpt><trkpt lat="51.9436393306" lon="-2.1673983894"><ele>-21.83</ele><time>2023-08-30T09:10:07Z</time></trkpt><trkpt lat="51.9436594471" lon="-2.1674802806"><ele>-21.83</ele><time>2023-08-30T09:10:26Z</time></trkpt><trkpt lat="51.9436812401" lon="-2.1675161552"><ele>-21.83</ele><time>2023-08-30T09:10:42Z</time></trkpt><trkpt lat="51.9436723553" lon="-2.1675456595"><ele>-21.83</ele><time>2023-08-30T09:11:19Z</time></trkpt><trkpt lat="51.9436668232" lon="-2.1675181668"><ele>-21.83</ele><time>2023-08-30T09:11:32Z</time></trkpt><trkpt lat="51.9436493050" lon="-2.1675205976"><ele>-21.83</ele><time>2023-08-30T09:11:39Z</time></trkpt><trkpt lat="51.9436541665" lon="-2.1675211005"><ele>-21.83</ele><time>2023-08-30T09:11:48Z</time></trkpt><trkpt lat="51.9435949065" lon="-2.1676041652"><ele>-21.83</ele><time>2023-08-30T09:12:09Z</time></trkpt><trkpt lat="51.9435742870" lon="-2.1677537821"><ele>-21.83</ele><time>2023-08-30T09:12:26Z</time></trkpt><trkpt lat="51.9435576908" lon="-2.1678345837"><ele>-21.83</ele><time>2023-08-30T09:12:47Z</time></trkpt><trkpt lat="51.9435589481" lon="-2.1679284610"><ele>-21.83</ele><time>2023-08-30T09:13:10Z</time></trkpt><trkpt lat="51.9435198046" lon="-2.1680790838"><ele>-21.83</ele><time>2023-08-30T09:13:32Z</time></trkpt><trkpt lat="51.9434757996" lon="-2.1683128551"><ele>-21.83</ele><time>2023-08-30T09:13:56Z</time></trkpt><trkpt lat="51.9434536714" lon="-2.1684451215"><ele>-23.09</ele><time>2023-08-30T09:14:17Z</time></trkpt><trkpt lat="51.9434453733" lon="-2.1684706863"><ele>-23.61</ele><time>2023-08-30T09:14:40Z</time></trkpt><trkpt lat="51.9434267655" lon="-2.1686616261"><ele>-22.85</ele><time>2023-08-30T09:15:00Z</time></trkpt><trkpt lat="51.9434083253" lon="-2.1687837504"><ele>-22.31</ele><time>2023-08-30T09:15:19Z</time></trkpt><trkpt lat="51.9434115943" lon="-2.1688581817"><ele>-22.91</ele><time>2023-08-30T09:15:42Z</time></trkpt><trkpt lat="51.9434137736" lon="-2.1688767057"><ele>-22.87</ele><time>2023-08-30T09:16:05Z</time></trkpt><trkpt lat="51.9433934893" lon="-2.1688429266"><ele>-23.03</ele><time>2023-08-30T09:16:30Z</time></trkpt><trkpt lat="51.9433948305" lon="-2.1690095589"><ele>-23.07</ele><time>2023-08-30T09:16:53Z</time></trkpt><trkpt lat="51.9433380850" lon="-2.1692767739"><ele>-23.10</ele><time>2023-08-30T09:17:09Z</time></trkpt><trkpt lat="51.9433366600" lon="-2.1692960523"><ele>-23.10</ele><time>2023-08-30T09:17:10Z</time></trkpt><trkpt lat="51.9433211535" lon="-2.1695417259"><ele>-22.77</ele><time>2023-08-30T09:17:25Z</time></trkpt><trkpt lat="51.9432947505" lon="-2.1697862260"><ele>-22.94</ele><time>2023-08-30T09:17:43Z</time></trkpt><trkpt lat="51.9432931580" lon="-2.1697954461"><ele>-22.71</ele><time>2023-08-30T09:18:04Z</time></trkpt><trkpt lat="51.9432843570" lon="-2.1698063426"><ele>-22.71</ele><time>2023-08-30T09:18:27Z</time></trkpt><trkpt lat="51.9432929903" lon="-2.1698692068"><ele>-22.71</ele><time>2023-08-30T09:18:46Z</time></trkpt><trkpt lat="51.9432784058" lon="-2.1698750742"><ele>-22.71</ele><time>2023-08-30T09:19:12Z</time></trkpt><trkpt lat="51.9432670902" lon="-2.1699081827"><ele>-22.71</ele><time>2023-08-30T09:19:40Z</time></trkpt><trkpt lat="51.9432706945" lon="-2.1700049099"><ele>-22.71</ele><time>2023-08-30T09:20:02Z</time></trkpt><trkpt lat="51.9432531763" lon="-2.1701859590"><ele>-22.71</ele><time>2023-08-30T09:20:24Z</time></trkpt><trkpt lat="51.9432551879" lon="-2.1701982804"><ele>-22.71</ele><time>2023-08-30T09:20:46Z</time></trkpt><trkpt lat="51.9432050642" lon="-2.1704334766"><ele>-23.18</ele><time>2023-08-30T09:21:07Z</time></trkpt><trkpt lat="51.9432014599" lon="-2.1705306228"><ele>-23.33</ele><time>2023-08-30T09:21:34Z</time></trkpt><trkpt lat="51.9431737997" lon="-2.1707935631"><ele>-23.28</ele><time>2023-08-30T09:21:54Z</time></trkpt><trkpt lat="51.9431493245" lon="-2.1710227244"><ele>-23.21</ele><time>2023-08-30T09:22:13Z</time></trkpt><trkpt lat="51.9431451336" lon="-2.1712501254"><ele>-23.21</ele><time>2023-08-30T09:22:34Z</time></trkpt><trkpt lat="51.9431093428" lon="-2.1714015864"><ele>-23.21</ele><time>2023-08-30T09:22:57Z</time></trkpt><trkpt lat="51.9431167189" lon="-2.1714064479"><ele>-23.21</ele><time>2023-08-30T09:23:22Z</time></trkpt><trkpt lat="51.9431099296" lon="-2.1714041848"><ele>-23.21</ele><time>2023-08-30T09:23:48Z</time></trkpt><trkpt lat="51.9430964347" lon="-2.1714156680"><ele>-23.21</ele><time>2023-08-30T09:24:14Z</time></trkpt><trkpt lat="51.9430959318" lon="-2.1714748442"><ele>-23.21</ele><time>2023-08-30T09:24:46Z</time></trkpt><trkpt lat="51.9430893939" lon="-2.1715487726"><ele>-23.21</ele><time>2023-08-30T09:25:06Z</time></trkpt><trkpt lat="51.9430812635" lon="-2.1716114692"><ele>-23.21</ele><time>2023-08-30T09:25:27Z</time></trkpt><trkpt lat="51.9430615660" lon="-2.1717049275"><ele>-23.21</ele><time>2023-08-30T09:25:44Z</time></trkpt><trkpt lat="51.9430515915" lon="-2.1717430651"><ele>-23.21</ele><time>2023-08-30T09:26:12Z</time></trkpt><trkpt lat="51.9430516753" lon="-2.1717703901"><ele>-23.21</ele><time>2023-08-30T09:26:40Z</time></trkpt><trkpt lat="51.9430577941" lon="-2.1717605833"><ele>-23.21</ele><time>2023-08-30T09:27:31Z</time></trkpt><trkpt lat="51.9430554472" lon="-2.1718686260"><ele>-23.21</ele><time>2023-08-30T09:27:49Z</time></trkpt><trkpt lat="51.9430536870" lon="-2.1720130462"><ele>-23.21</ele><time>2023-08-30T09:28:08Z</time></trkpt><trkpt lat="51.9430135377" lon="-2.1723390184"><ele>-23.07</ele><time>2023-08-30T09:28:28Z</time></trkpt><trkpt lat="51.9429944269" lon="-2.1723863762"><ele>-22.96</ele><time>2023-08-30T09:28:43Z</time></trkpt><trkpt lat="51.9429662637" lon="-2.1726102568"><ele>-22.84</ele><time>2023-08-30T09:28:59Z</time></trkpt><trkpt lat="51.9429454766" lon="-2.1728797350"><ele>-22.90</ele><time>2023-08-30T09:29:16Z</time></trkpt><trkpt lat="51.9429154694" lon="-2.1731183678"><ele>-22.86</ele><time>2023-08-30T09:29:31Z</time></trkpt><trkpt lat="51.9428937603" lon="-2.1733237244"><ele>-22.88</ele><time>2023-08-30T09:29:46Z</time></trkpt><trkpt lat="51.9428638369" lon="-2.1736080386"><ele>-22.90</ele><time>2023-08-30T09:30:04Z</time></trkpt><trkpt lat="51.9428288843" lon="-2.1738496888"><ele>-22.68</ele><time>2023-08-30T09:30:23Z</time></trkpt><trkpt lat="51.9428288843" lon="-2.1738913469"><ele>-22.68</ele><time>2023-08-30T09:30:50Z</time></trkpt><trkpt lat="51.9428086001" lon="-2.1741834562"><ele>-22.95</ele><time>2023-08-30T09:31:09Z</time></trkpt><trkpt lat="51.9427873939" lon="-2.1742728911"><ele>-22.92</ele><time>2023-08-30T09:31:27Z</time></trkpt><trkpt lat="51.9428145513" lon="-2.1742623299"><ele>-22.80</ele><time>2023-08-30T09:31:48Z</time></trkpt><trkpt lat="51.9427580573" lon="-2.1744681057"><ele>-22.68</ele><time>2023-08-30T09:32:05Z</time></trkpt><trkpt lat="51.9427601527" lon="-2.1746022999"><ele>-22.91</ele><time>2023-08-30T09:32:14Z</time></trkpt><trkpt lat="51.9427341688" lon="-2.1747735422"><ele>-22.89</ele><time>2023-08-30T09:32:30Z</time></trkpt><trkpt lat="51.9427127950" lon="-2.1750803199"><ele>-22.96</ele><time>2023-08-30T09:32:50Z</time></trkpt><trkpt lat="51.9426910020" lon="-2.1753347106"><ele>-22.85</ele><time>2023-08-30T09:33:06Z</time></trkpt><trkpt lat="51.9426660240" lon="-2.1755725052"><ele>-22.76</ele><time>2023-08-30T09:33:22Z</time></trkpt><trkpt lat="51.9426535349" lon="-2.1756329387"><ele>-21.67</ele><time>2023-08-30T09:33:44Z</time></trkpt><trkpt lat="51.9426461589" lon="-2.1756808832"><ele>-22.82</ele><time>2023-08-30T09:34:11Z</time></trkpt><trkpt lat="51.9426538702" lon="-2.1756817214"><ele>-22.68</ele><time>2023-08-30T09:34:36Z</time></trkpt><trkpt lat="51.9426568039" lon="-2.1756873373"><ele>-22.81</ele><time>2023-08-30T09:35:03Z</time></trkpt><trkpt lat="51.9426749088" lon="-2.1756858286"><ele>-22.74</ele><time>2023-08-30T09:35:32Z</time></trkpt><trkpt lat="51.9426645990" lon="-2.1757327672"><ele>-22.74</ele><time>2023-08-30T09:35:54Z</time></trkpt><trkpt lat="51.9426200911" lon="-2.1759724058"><ele>-22.74</ele><time>2023-08-30T09:36:22Z</time></trkpt><trkpt lat="51.9426067639" lon="-2.1762392856"><ele>-22.74</ele><time>2023-08-30T09:36:46Z</time></trkpt><trkpt lat="51.9425848033" lon="-2.1764017269"><ele>-22.74</ele><time>2023-08-30T09:36:59Z</time></trkpt><trkpt lat="51.9425672013" lon="-2.1766744740"><ele>-22.74</ele><time>2023-08-30T09:37:24Z</time></trkpt><trkpt lat="51.9425439835" lon="-2.1769096702"><ele>-22.74</ele><time>2023-08-30T09:37:44Z</time></trkpt><trkpt lat="51.9425039180" lon="-2.1771721076"><ele>-22.30</ele><time>2023-08-30T09:38:03Z</time></trkpt><trkpt lat="51.9424640201" lon="-2.1774400771"><ele>-22.30</ele><time>2023-08-30T09:38:29Z</time></trkpt><trkpt lat="51.9424283970" lon="-2.1776445117"><ele>-22.02</ele><time>2023-08-30T09:38:54Z</time></trkpt><trkpt lat="51.9424181711" lon="-2.1779105533"><ele>-22.04</ele><time>2023-08-30T09:39:21Z</time></trkpt><trkpt lat="51.9423627667" lon="-2.1781506110"><ele>-22.27</ele><time>2023-08-30T09:39:48Z</time></trkpt><trkpt lat="51.9423493557" lon="-2.1783397906"><ele>-22.27</ele><time>2023-08-30T09:40:12Z</time></trkpt><trkpt lat="51.9423691370" lon="-2.1784152277"><ele>-22.27</ele><time>2023-08-30T09:40:41Z</time></trkpt><trkpt lat="51.9423679635" lon="-2.1784118749"><ele>-22.27</ele><time>2023-08-30T09:41:09Z</time></trkpt><trkpt lat="51.9423910137" lon="-2.1784512699"><ele>-22.27</ele><time>2023-08-30T09:41:43Z</time></trkpt><trkpt lat="51.9424515311" lon="-2.1784315724"><ele>-22.27</ele><time>2023-08-30T09:42:08Z</time></trkpt><trkpt lat="51.9424867351" lon="-2.1784806065"><ele>-22.27</ele><time>2023-08-30T09:42:28Z</time></trkpt><trkpt lat="51.9426355977" lon="-2.1786578000"><ele>-22.27</ele><time>2023-08-30T09:42:48Z</time></trkpt><trkpt lat="51.9427627511" lon="-2.1788036451"><ele>-23.32</ele><time>2023-08-30T09:43:07Z</time></trkpt><trkpt lat="51.9428766612" lon="-2.1789489873"><ele>-23.49</ele><time>2023-08-30T09:43:25Z</time></trkpt><trkpt lat="51.9428738952" lon="-2.1789658349"><ele>-23.40</ele><time>2023-08-30T09:43:46Z</time></trkpt><trkpt lat="51.9428822771" lon="-2.1789763961"><ele>-23.33</ele><time>2023-08-30T09:44:17Z</time></trkpt><trkpt lat="51.9428880606" lon="-2.1789818443"><ele>-23.33</ele><time>2023-08-30T09:44:23Z</time></trkpt><trkpt lat="51.9429318141" lon="-2.1790200658"><ele>-23.35</ele><time>2023-08-30T09:44:27Z</time></trkpt><trkpt lat="51.9430235960" lon="-2.1791177150"><ele>-23.54</ele><time>2023-08-30T09:44:48Z</time></trkpt><trkpt lat="51.9430393539" lon="-2.1791370772"><ele>-23.54</ele><time>2023-08-30T09:45:04Z</time></trkpt><trkpt lat="51.9430757314" lon="-2.1791745443"><ele>-23.54</ele><time>2023-08-30T09:45:08Z</time></trkpt><trkpt lat="51.9432512484" lon="-2.1793755423"><ele>-23.47</ele><time>2023-08-30T09:45:30Z</time></trkpt><trkpt lat="51.9432982709" lon="-2.1794332936"><ele>-23.52</ele><time>2023-08-30T09:45:36Z</time></trkpt><trkpt lat="51.9434752129" lon="-2.1795941424"><ele>-23.42</ele><time>2023-08-30T09:45:54Z</time></trkpt><trkpt lat="51.9435938168" lon="-2.1798575856"><ele>-23.28</ele><time>2023-08-30T09:46:11Z</time></trkpt><trkpt lat="51.9436645601" lon="-2.1800774429"><ele>-23.81</ele><time>2023-08-30T09:46:29Z</time></trkpt><trkpt lat="51.9437237363" lon="-2.1802810393"><ele>-23.29</ele><time>2023-08-30T09:46:48Z</time></trkpt><trkpt lat="51.9437819906" lon="-2.1804807801"><ele>-23.08</ele><time>2023-08-30T09:47:07Z</time></trkpt><trkpt lat="51.9438496325" lon="-2.1806890704"><ele>-23.26</ele><time>2023-08-30T09:47:26Z</time></trkpt><trkpt lat="51.9438971579" lon="-2.1808601450"><ele>-23.55</ele><time>2023-08-30T09:47:43Z</time></trkpt><trkpt lat="51.9439436775" lon="-2.1810185630"><ele>-23.49</ele><time>2023-08-30T09:48:02Z</time></trkpt><trkpt lat="51.9439870957" lon="-2.1811554395"><ele>-23.65</ele><time>2023-08-30T09:48:20Z</time></trkpt><trkpt lat="51.9440409075" lon="-2.1813035477"><ele>-23.60</ele><time>2023-08-30T09:48:36Z</time></trkpt><trkpt lat="51.9441066217" lon="-2.1815179568"><ele>-23.74</ele><time>2023-08-30T09:48:55Z</time></trkpt><trkpt lat="51.9441725872" lon="-2.1816938091"><ele>-23.44</ele><time>2023-08-30T09:49:13Z</time></trkpt><trkpt lat="51.9442204479" lon="-2.1818417497"><ele>-24.01</ele><time>2023-08-30T09:49:32Z</time></trkpt><trkpt lat="51.9442400616" lon="-2.1818607766"><ele>-23.76</ele><time>2023-08-30T09:49:53Z</time></trkpt><trkpt lat="51.9443056919" lon="-2.1820898540"><ele>-24.04</ele><time>2023-08-30T09:50:12Z</time></trkpt><trkpt lat="51.9443252217" lon="-2.1821444202"><ele>-23.69</ele><time>2023-08-30T09:50:26Z</time></trkpt><trkpt lat="51.9443552289" lon="-2.1822450869"><ele>-23.59</ele><time>2023-08-30T09:50:41Z</time></trkpt><trkpt lat="51.9443934504" lon="-2.1824166644"><ele>-23.66</ele><time>2023-08-30T09:50:56Z</time></trkpt><trkpt lat="51.9444075320" lon="-2.1824980527"><ele>-24.53</ele><time>2023-08-30T09:51:11Z</time></trkpt><trkpt lat="51.9444662053" lon="-2.1827014815"><ele>-23.87</ele><time>2023-08-30T09:51:29Z</time></trkpt><trkpt lat="51.9445233699" lon="-2.1828574687"><ele>-24.07</ele><time>2023-08-30T09:51:46Z</time></trkpt><trkpt lat="51.9445608370" lon="-2.1829728875"><ele>-23.93</ele><time>2023-08-30T09:52:05Z</time></trkpt><trkpt lat="51.9446289819" lon="-2.1831597202"><ele>-23.93</ele><time>2023-08-30T09:52:24Z</time></trkpt><trkpt lat="51.9446305744" lon="-2.1831792500"><ele>-23.93</ele><time>2023-08-30T09:52:45Z</time></trkpt><trkpt lat="51.9446238689" lon="-2.1831589658"><ele>-23.93</ele><time>2023-08-30T09:53:17Z</time></trkpt><trkpt lat="51.9446106255" lon="-2.1831360832"><ele>-23.93</ele><time>2023-08-30T09:53:42Z</time></trkpt><trkpt lat="51.9446019083" lon="-2.1831094287"><ele>-23.93</ele><time>2023-08-30T09:53:47Z</time></trkpt><trkpt lat="51.9445791934" lon="-2.1830111928"><ele>-24.00</ele><time>2023-08-30T09:53:53Z</time></trkpt><trkpt lat="51.9444949552" lon="-2.1827187482"><ele>-24.25</ele><time>2023-08-30T09:54:12Z</time></trkpt><trkpt lat="51.9444280677" lon="-2.1825038362"><ele>-24.43</ele><time>2023-08-30T09:54:28Z</time></trkpt><trkpt lat="51.9443532173" lon="-2.1822253056"><ele>-24.36</ele><time>2023-08-30T09:54:49Z</time></trkpt><trkpt lat="51.9442928676" lon="-2.1820363775"><ele>-24.43</ele><time>2023-08-30T09:55:06Z</time></trkpt><trkpt lat="51.9442270696" lon="-2.1818270814"><ele>-24.51</ele><time>2023-08-30T09:55:25Z</time></trkpt><trkpt lat="51.9441822264" lon="-2.1816641372"><ele>-25.61</ele><time>2023-08-30T09:55:45Z</time></trkpt><trkpt lat="51.9441788737" lon="-2.1816669870"><ele>-23.82</ele><time>2023-08-30T09:55:51Z</time></trkpt><trkpt lat="51.9441492017" lon="-2.1815426834"><ele>-24.39</ele><time>2023-08-30T09:56:16Z</time></trkpt><trkpt lat="51.9440934621" lon="-2.1813364048"><ele>-24.60</ele><time>2023-08-30T09:56:34Z</time></trkpt><trkpt lat="51.9440283347" lon="-2.1811340656"><ele>-24.59</ele><time>2023-08-30T09:56:52Z</time></trkpt><trkpt lat="51.9439698290" lon="-2.1809561178"><ele>-24.67</ele><time>2023-08-30T09:57:12Z</time></trkpt><trkpt lat="51.9439746905" lon="-2.1810427029"><ele>-24.70</ele><time>2023-08-30T09:57:40Z</time></trkpt><trkpt lat="51.9439699966" lon="-2.1810340695"><ele>-24.67</ele><time>2023-08-30T09:58:04Z</time></trkpt><trkpt lat="51.9439584296" lon="-2.1809946746"><ele>-24.34</ele><time>2023-08-30T09:58:22Z</time></trkpt><trkpt lat="51.9439433422" lon="-2.1808791719"><ele>-24.09</ele><time>2023-08-30T09:58:41Z</time></trkpt><trkpt lat="51.9438782148" lon="-2.1808638331"><ele>-24.07</ele><time>2023-08-30T09:58:58Z</time></trkpt><trkpt lat="51.9438706711" lon="-2.1807592269"><ele>-24.11</ele><time>2023-08-30T09:59:14Z</time></trkpt><trkpt lat="51.9438319467" lon="-2.1806230210"><ele>-23.93</ele><time>2023-08-30T09:59:33Z</time></trkpt><trkpt lat="51.9437599462" lon="-2.1803569794"><ele>-24.14</ele><time>2023-08-30T09:59:54Z</time></trkpt><trkpt lat="51.9437066372" lon="-2.1802056022"><ele>-24.53</ele><time>2023-08-30T10:00:10Z</time></trkpt><trkpt lat="51.9436290208" lon="-2.1799495351"><ele>-23.90</ele><time>2023-08-30T10:00:31Z</time></trkpt><trkpt lat="51.9435594510" lon="-2.1797343716"><ele>-24.56</ele><time>2023-08-30T10:00:51Z</time></trkpt><trkpt lat="51.9435391668" lon="-2.1796596050"><ele>-24.15</ele><time>2023-08-30T10:01:14Z</time></trkpt><trkpt lat="51.9434903003" lon="-2.1795867663"><ele>-23.54</ele><time>2023-08-30T10:01:36Z</time></trkpt><trkpt lat="51.9433632307" lon="-2.1794539969"><ele>-23.73</ele><time>2023-08-30T10:01:55Z</time></trkpt><trkpt lat="51.9432764780" lon="-2.1793715190"><ele>-23.86</ele><time>2023-08-30T10:02:15Z</time></trkpt><trkpt lat="51.9432367478" lon="-2.1793543361"><ele>-23.95</ele><time>2023-08-30T10:02:34Z</time></trkpt><trkpt lat="51.9431574550" lon="-2.1792603750"><ele>-24.10</ele><time>2023-08-30T10:02:51Z</time></trkpt><trkpt lat="51.9431343209" lon="-2.1792321280"><ele>-23.33</ele><time>2023-08-30T10:03:08Z</time></trkpt><trkpt lat="51.9430499990" lon="-2.1791362390"><ele>-23.68</ele><time>2023-08-30T10:03:27Z</time></trkpt><trkpt lat="51.9429917447" lon="-2.1790545993"><ele>-23.04</ele><time>2023-08-30T10:03:42Z</time></trkpt><trkpt lat="51.9428821933" lon="-2.1789470594"><ele>-23.65</ele><time>2023-08-30T10:04:01Z</time></trkpt><trkpt lat="51.9427267089" lon="-2.1787876356"><ele>-23.69</ele><time>2023-08-30T10:04:24Z</time></trkpt><trkpt lat="51.9425909221" lon="-2.1786174830"><ele>-23.69</ele><time>2023-08-30T10:04:49Z</time></trkpt><trkpt lat="51.9424663670" lon="-2.1784626693"><ele>-23.69</ele><time>2023-08-30T10:05:11Z</time></trkpt><trkpt lat="51.9424400479" lon="-2.1784571372"><ele>-23.69</ele><time>2023-08-30T10:05:30Z</time></trkpt><trkpt lat="51.9423800334" lon="-2.1784069296"><ele>-23.69</ele><time>2023-08-30T10:05:53Z</time></trkpt><trkpt lat="51.9423307478" lon="-2.1784856357"><ele>-23.69</ele><time>2023-08-30T10:06:18Z</time></trkpt><trkpt lat="51.9423170015" lon="-2.1785511822"><ele>-23.69</ele><time>2023-08-30T10:06:40Z</time></trkpt><trkpt lat="51.9422957953" lon="-2.1787368413"><ele>-23.69</ele><time>2023-08-30T10:07:06Z</time></trkpt><trkpt lat="51.9422843959" lon="-2.1790053137"><ele>-23.69</ele><time>2023-08-30T10:07:29Z</time></trkpt><trkpt lat="51.9422974717" lon="-2.1791364066"><ele>-23.69</ele><time>2023-08-30T10:07:46Z</time></trkpt><trkpt lat="51.9422665425" lon="-2.1793441102"><ele>-23.61</ele><time>2023-08-30T10:08:03Z</time></trkpt><trkpt lat="51.9422330149" lon="-2.1795031987"><ele>-23.32</ele><time>2023-08-30T10:08:22Z</time></trkpt><trkpt lat="51.9422273152" lon="-2.1796830744"><ele>-23.09</ele><time>2023-08-30T10:08:39Z</time></trkpt><trkpt lat="51.9421905186" lon="-2.1799853258"><ele>-23.06</ele><time>2023-08-30T10:09:02Z</time></trkpt><trkpt lat="51.9421405625" lon="-2.1802378725"><ele>-23.15</ele><time>2023-08-30T10:09:24Z</time></trkpt><trkpt lat="51.9421003293" lon="-2.1804557182"><ele>-23.15</ele><time>2023-08-30T10:09:42Z</time></trkpt><trkpt lat="51.9420721661" lon="-2.1807203349"><ele>-23.27</ele><time>2023-08-30T10:10:02Z</time></trkpt><trkpt lat="51.9420649577" lon="-2.1807708777"><ele>-22.90</ele><time>2023-08-30T10:10:23Z</time></trkpt><trkpt lat="51.9420631975" lon="-2.1807734761"><ele>-24.26</ele><time>2023-08-30T10:10:28Z</time></trkpt><trkpt lat="51.9420541450" lon="-2.1808350831"><ele>-24.26</ele><time>2023-08-30T10:11:05Z</time></trkpt><trkpt lat="51.9420232996" lon="-2.1810933296"><ele>-23.69</ele><time>2023-08-30T10:11:26Z</time></trkpt><trkpt lat="51.9420001656" lon="-2.1813565213"><ele>-23.30</ele><time>2023-08-30T10:11:47Z</time></trkpt><trkpt lat="51.9419985730" lon="-2.1815888677"><ele>-23.33</ele><time>2023-08-30T10:12:03Z</time></trkpt><trkpt lat="51.9419858325" lon="-2.1817188710"><ele>-23.14</ele><time>2023-08-30T10:12:25Z</time></trkpt><trkpt lat="51.9420052785" lon="-2.1817336231"><ele>-23.20</ele><time>2023-08-30T10:12:51Z</time></trkpt><trkpt lat="51.9420260657" lon="-2.1817671508"><ele>-23.06</ele><time>2023-08-30T10:13:08Z</time></trkpt><trkpt lat="51.9420818053" lon="-2.1817634627"><ele>-23.06</ele><time>2023-08-30T10:13:26Z</time></trkpt><trkpt lat="51.9420871697" lon="-2.1817696653"><ele>-23.06</ele><time>2023-08-30T10:13:27Z</time></trkpt><trkpt lat="51.9422551431" lon="-2.1819827333"><ele>-22.99</ele><time>2023-08-30T10:13:48Z</time></trkpt><trkpt lat="51.9423910975" lon="-2.1820912790"><ele>-23.00</ele><time>2023-08-30T10:14:11Z</time></trkpt><trkpt lat="51.9425168261" lon="-2.1821350325"><ele>-23.00</ele><time>2023-08-30T10:14:30Z</time></trkpt><trkpt lat="51.9427435566" lon="-2.1822015848"><ele>-22.51</ele><time>2023-08-30T10:14:55Z</time></trkpt><trkpt lat="51.9428305607" lon="-2.1824087016"><ele>-21.91</ele><time>2023-08-30T10:15:17Z</time></trkpt><trkpt lat="51.9428348355" lon="-2.1824381221"><ele>-22.03</ele><time>2023-08-30T10:15:39Z</time></trkpt><trkpt lat="51.9428317342" lon="-2.1824721526"><ele>-22.12</ele><time>2023-08-30T10:15:59Z</time></trkpt><trkpt lat="51.9428348355" lon="-2.1824579034"><ele>-22.23</ele><time>2023-08-30T10:16:26Z</time></trkpt><trkpt lat="51.9428392779" lon="-2.1824736614"><ele>-22.23</ele><time>2023-08-30T10:16:51Z</time></trkpt><trkpt lat="51.9428489171" lon="-2.1824875753"><ele>-22.23</ele><time>2023-08-30T10:17:23Z</time></trkpt><trkpt lat="51.9428477436" lon="-2.1825070214"><ele>-22.23</ele><time>2023-08-30T10:17:49Z</time></trkpt><trkpt lat="51.9428518508" lon="-2.1825070214"><ele>-22.23</ele><time>2023-08-30T10:18:11Z</time></trkpt><trkpt lat="51.9428445585" lon="-2.1824815404"><ele>-22.23</ele><time>2023-08-30T10:18:39Z</time></trkpt><trkpt lat="51.9428385235" lon="-2.1824808698"><ele>-22.23</ele><time>2023-08-30T10:19:14Z</time></trkpt><trkpt lat="51.9428344164" lon="-2.1824765112"><ele>-22.23</ele><time>2023-08-30T10:19:43Z</time></trkpt><trkpt lat="51.9428324886" lon="-2.1824707277"><ele>-22.23</ele><time>2023-08-30T10:20:13Z</time></trkpt><trkpt lat="51.9428526051" lon="-2.1824330930"><ele>-22.23</ele><time>2023-08-30T10:20:42Z</time></trkpt><trkpt lat="51.9428709615" lon="-2.1824099589"><ele>-22.23</ele><time>2023-08-30T10:21:09Z</time></trkpt><trkpt lat="51.9428716321" lon="-2.1824346855"><ele>-22.23</ele><time>2023-08-30T10:21:39Z</time></trkpt><trkpt lat="51.9428727217" lon="-2.1824585740"><ele>-22.23</ele><time>2023-08-30T10:22:05Z</time></trkpt><trkpt lat="51.9428888150" lon="-2.1824388765"><ele>-22.23</ele><time>2023-08-30T10:22:33Z</time></trkpt><trkpt lat="51.9428806007" lon="-2.1824534610"><ele>-22.23</ele><time>2023-08-30T10:23:04Z</time></trkpt><trkpt lat="51.9428817742" lon="-2.1824491024"><ele>-22.23</ele><time>2023-08-30T10:23:34Z</time></trkpt><trkpt lat="51.9428707100" lon="-2.1824520361"><ele>-22.23</ele><time>2023-08-30T10:24:03Z</time></trkpt><trkpt lat="51.9428766612" lon="-2.1824563108"><ele>-22.23</ele><time>2023-08-30T10:24:28Z</time></trkpt><trkpt lat="51.9428660162" lon="-2.1824767627"><ele>-22.23</ele><time>2023-08-30T10:25:02Z</time></trkpt><trkpt lat="51.9428527728" lon="-2.1824637707"><ele>-22.23</ele><time>2023-08-30T10:25:08Z</time></trkpt><trkpt lat="51.9428664353" lon="-2.1824600827"><ele>-22.11</ele><time>2023-08-30T10:25:41Z</time></trkpt><trkpt lat="51.9428717159" lon="-2.1824636031"><ele>-22.50</ele><time>2023-08-30T10:26:12Z</time></trkpt><trkpt lat="51.9428760745" lon="-2.1824552212"><ele>-22.50</ele><time>2023-08-30T10:26:51Z</time></trkpt><trkpt lat="51.9428614900" lon="-2.1824667044"><ele>-22.50</ele><time>2023-08-30T10:27:21Z</time></trkpt><trkpt lat="51.9428723026" lon="-2.1824527066"><ele>-22.50</ele><time>2023-08-30T10:27:58Z</time></trkpt><trkpt lat="51.9428796787" lon="-2.1824576519"><ele>-22.50</ele><time>2023-08-30T10:28:50Z</time></trkpt><trkpt lat="51.9428937603" lon="-2.1824627649"><ele>-22.50</ele><time>2023-08-30T10:29:18Z</time></trkpt><trkpt lat="51.9428730570" lon="-2.1824589092"><ele>-22.50</ele><time>2023-08-30T10:29:47Z</time></trkpt><trkpt lat="51.9428664353" lon="-2.1824767627"><ele>-22.50</ele><time>2023-08-30T10:30:13Z</time></trkpt><trkpt lat="51.9428593107" lon="-2.1824702248"><ele>-22.50</ele><time>2023-08-30T10:30:45Z</time></trkpt><trkpt lat="51.9428544492" lon="-2.1824668720"><ele>-22.50</ele><time>2023-08-30T10:31:09Z</time></trkpt><trkpt lat="51.9428690337" lon="-2.1824488509"><ele>-22.50</ele><time>2023-08-30T10:31:51Z</time></trkpt><trkpt lat="51.9428732246" lon="-2.1824537124"><ele>-22.50</ele><time>2023-08-30T10:32:20Z</time></trkpt><trkpt lat="51.9428797625" lon="-2.1824581549"><ele>-22.50</ele><time>2023-08-30T10:32:44Z</time></trkpt><trkpt lat="51.9428770803" lon="-2.1824577358"><ele>-22.50</ele><time>2023-08-30T10:33:15Z</time></trkpt><trkpt lat="51.9428718835" lon="-2.1824485157"><ele>-22.50</ele><time>2023-08-30T10:33:42Z</time></trkpt><trkpt lat="51.9428701233" lon="-2.1824496891"><ele>-22.50</ele><time>2023-08-30T10:34:13Z</time></trkpt><trkpt lat="51.9428756554" lon="-2.1824395470"><ele>-22.50</ele><time>2023-08-30T10:34:38Z</time></trkpt><trkpt lat="51.9428876415" lon="-2.1824139822"><ele>-22.50</ele><time>2023-08-30T10:35:01Z</time></trkpt><trkpt lat="51.9428908266" lon="-2.1824164130"><ele>-22.50</ele><time>2023-08-30T10:35:27Z</time></trkpt><trkpt lat="51.9428199995" lon="-2.1822207794"><ele>-22.50</ele><time>2023-08-30T10:35:48Z</time></trkpt><trkpt lat="51.9427822810" lon="-2.1821764391"><ele>-22.50</ele><time>2023-08-30T10:36:04Z</time></trkpt><trkpt lat="51.9426503498" lon="-2.1821520478"><ele>-22.50</ele><time>2023-08-30T10:36:25Z</time></trkpt><trkpt lat="51.9424515311" lon="-2.1820458490"><ele>-22.50</ele><time>2023-08-30T10:36:47Z</time></trkpt><trkpt lat="51.9422975555" lon="-2.1818786301"><ele>-23.47</ele><time>2023-08-30T10:37:03Z</time></trkpt><trkpt lat="51.9420901872" lon="-2.1817573439"><ele>-23.15</ele><time>2023-08-30T10:37:20Z</time></trkpt><trkpt lat="51.9420081284" lon="-2.1817119978"><ele>-23.09</ele><time>2023-08-30T10:37:35Z</time></trkpt><trkpt lat="51.9420047756" lon="-2.1815969981"><ele>-24.03</ele><time>2023-08-30T10:37:54Z</time></trkpt><trkpt lat="51.9420057815" lon="-2.1815617103"><ele>-22.72</ele><time>2023-08-30T10:38:01Z</time></trkpt><trkpt lat="51.9420124870" lon="-2.1814166196"><ele>-23.42</ele><time>2023-08-30T10:38:21Z</time></trkpt><trkpt lat="51.9420155045" lon="-2.1812042221"><ele>-23.65</ele><time>2023-08-30T10:38:40Z</time></trkpt><trkpt lat="51.9420368783" lon="-2.1811165474"><ele>-23.53</ele><time>2023-08-30T10:39:00Z</time></trkpt><trkpt lat="51.9420443382" lon="-2.1809828561"><ele>-23.53</ele><time>2023-08-30T10:39:18Z</time></trkpt><trkpt lat="51.9420543965" lon="-2.1808924992"><ele>-23.53</ele><time>2023-08-30T10:39:34Z</time></trkpt><trkpt lat="51.9420740101" lon="-2.1807298902"><ele>-23.53</ele><time>2023-08-30T10:39:54Z</time></trkpt><trkpt lat="51.9421060290" lon="-2.1805774234"><ele>-23.93</ele><time>2023-08-30T10:40:11Z</time></trkpt><trkpt lat="51.9421418197" lon="-2.1803249605"><ele>-24.06</ele><time>2023-08-30T10:40:32Z</time></trkpt><trkpt lat="51.9421810471" lon="-2.1801219508"><ele>-24.26</ele><time>2023-08-30T10:40:52Z</time></trkpt><trkpt lat="51.9421994872" lon="-2.1798808873"><ele>-24.14</ele><time>2023-08-30T10:41:14Z</time></trkpt><trkpt lat="51.9422221184" lon="-2.1797217149"><ele>-23.60</ele><time>2023-08-30T10:41:36Z</time></trkpt><trkpt lat="51.9422467612" lon="-2.1795284282"><ele>-23.61</ele><time>2023-08-30T10:41:57Z</time></trkpt><trkpt lat="51.9422481861" lon="-2.1795165259"><ele>-23.75</ele><time>2023-08-30T10:42:26Z</time></trkpt><trkpt lat="51.9422468450" lon="-2.1794948168"><ele>-23.73</ele><time>2023-08-30T10:42:52Z</time></trkpt><trkpt lat="51.9422521256" lon="-2.1793902107"><ele>-23.73</ele><time>2023-08-30T10:43:12Z</time></trkpt><trkpt lat="51.9422880001" lon="-2.1792290267"><ele>-23.60</ele><time>2023-08-30T10:43:23Z</time></trkpt><trkpt lat="51.9423166662" lon="-2.1789838560"><ele>-23.22</ele><time>2023-08-30T10:43:40Z</time></trkpt><trkpt lat="51.9423247129" lon="-2.1786867175"><ele>-22.75</ele><time>2023-08-30T10:44:01Z</time></trkpt><trkpt lat="51.9423634373" lon="-2.1784542035"><ele>-22.33</ele><time>2023-08-30T10:44:19Z</time></trkpt><trkpt lat="51.9423734117" lon="-2.1784271300"><ele>-22.63</ele><time>2023-08-30T10:44:40Z</time></trkpt><trkpt lat="51.9423449133" lon="-2.1783774253"><ele>-22.30</ele><time>2023-08-30T10:44:57Z</time></trkpt><trkpt lat="51.9423406385" lon="-2.1783220209"><ele>-22.30</ele><time>2023-08-30T10:45:02Z</time></trkpt><trkpt lat="51.9423499424" lon="-2.1782459132"><ele>-22.31</ele><time>2023-08-30T10:45:07Z</time></trkpt><trkpt lat="51.9424008206" lon="-2.1780506149"><ele>-21.99</ele><time>2023-08-30T10:45:25Z</time></trkpt><trkpt lat="51.9423937798" lon="-2.1779706515"><ele>-21.99</ele><time>2023-08-30T10:45:49Z</time></trkpt><trkpt lat="51.9423872419" lon="-2.1777670551"><ele>-21.99</ele><time>2023-08-30T10:46:02Z</time></trkpt><trkpt lat="51.9423910975" lon="-2.1777294204"><ele>-21.99</ele><time>2023-08-30T10:46:04Z</time></trkpt><trkpt lat="51.9424160756" lon="-2.1776224673"><ele>-22.19</ele><time>2023-08-30T10:46:10Z</time></trkpt><trkpt lat="51.9424795266" lon="-2.1772628836"><ele>-22.50</ele><time>2023-08-30T10:46:30Z</time></trkpt><trkpt lat="51.9424934406" lon="-2.1770646516"><ele>-22.33</ele><time>2023-08-30T10:46:49Z</time></trkpt><trkpt lat="51.9425318297" lon="-2.1768312156"><ele>-22.29</ele><time>2023-08-30T10:47:06Z</time></trkpt><trkpt lat="51.9425620046" lon="-2.1766152140"><ele>-22.46</ele><time>2023-08-30T10:47:24Z</time></trkpt><trkpt lat="51.9425778463" lon="-2.1764462348"><ele>-22.35</ele><time>2023-08-30T10:47:44Z</time></trkpt><trkpt lat="51.9426069316" lon="-2.1760880761"><ele>-22.35</ele><time>2023-08-30T10:48:14Z</time></trkpt><trkpt lat="51.9425692130" lon="-2.1759127267"><ele>-22.35</ele><time>2023-08-30T10:48:40Z</time></trkpt><trkpt lat="51.9425572269" lon="-2.1758943703"><ele>-22.35</ele><time>2023-08-30T10:49:01Z</time></trkpt><trkpt lat="51.9425413851" lon="-2.1758522931"><ele>-22.35</ele><time>2023-08-30T10:49:23Z</time></trkpt><trkpt lat="51.9425286446" lon="-2.1758334339"><ele>-22.35</ele><time>2023-08-30T10:49:24Z</time></trkpt><trkpt lat="51.9425072707" lon="-2.1757921949"><ele>-22.35</ele><time>2023-08-30T10:49:51Z</time></trkpt><trkpt lat="51.9425056782" lon="-2.1758010797"><ele>-22.35</ele><time>2023-08-30T10:50:19Z</time></trkpt><trkpt lat="51.9425047562" lon="-2.1757475194"><ele>-22.35</ele><time>2023-08-30T10:50:50Z</time></trkpt><trkpt lat="51.9425090309" lon="-2.1757143270"><ele>-22.35</ele><time>2023-08-30T10:51:08Z</time></trkpt><trkpt lat="51.9424929377" lon="-2.1756264009"><ele>-21.98</ele><time>2023-08-30T10:51:25Z</time></trkpt><trkpt lat="51.9425083604" lon="-2.1755347028"><ele>-21.74</ele><time>2023-08-30T10:51:42Z</time></trkpt><trkpt lat="51.9425102882" lon="-2.1755383909"><ele>-21.94</ele><time>2023-08-30T10:53:09Z</time></trkpt><trkpt lat="51.9425094500" lon="-2.1754663903"><ele>-21.94</ele><time>2023-08-30T10:53:54Z</time></trkpt><trkpt lat="51.9425251242" lon="-2.1753850020"><ele>-21.93</ele><time>2023-08-30T10:54:00Z</time></trkpt><trkpt lat="51.9425357692" lon="-2.1752942260"><ele>-21.84</ele><time>2023-08-30T10:54:05Z</time></trkpt><trkpt lat="51.9425640162" lon="-2.1749471314"><ele>-22.07</ele><time>2023-08-30T10:54:24Z</time></trkpt><trkpt lat="51.9425968733" lon="-2.1746452991"><ele>-22.14</ele><time>2023-08-30T10:54:41Z</time></trkpt><trkpt lat="51.9426040817" lon="-2.1745971870"><ele>-22.19</ele><time>2023-08-30T10:54:44Z</time></trkpt><trkpt lat="51.9426537864" lon="-2.1743142977"><ele>-22.34</ele><time>2023-08-30T10:55:01Z</time></trkpt><trkpt lat="51.9426785130" lon="-2.1739831287"><ele>-22.29</ele><time>2023-08-30T10:55:19Z</time></trkpt><trkpt lat="51.9426759146" lon="-2.1737291571"><ele>-22.60</ele><time>2023-08-30T10:55:33Z</time></trkpt><trkpt lat="51.9427205063" lon="-2.1734502912"><ele>-22.40</ele><time>2023-08-30T10:55:50Z</time></trkpt><trkpt lat="51.9427245297" lon="-2.1734293364"><ele>-22.38</ele><time>2023-08-30T10:55:52Z</time></trkpt><trkpt lat="51.9427266251" lon="-2.1733937133"><ele>-22.34</ele><time>2023-08-30T10:55:54Z</time></trkpt><trkpt lat="51.9427787606" lon="-2.1730480436"><ele>-22.31</ele><time>2023-08-30T10:56:16Z</time></trkpt><trkpt lat="51.9427790958" lon="-2.1729903761"><ele>-22.17</ele><time>2023-08-30T10:56:34Z</time></trkpt><trkpt lat="51.9427854661" lon="-2.1729555074"><ele>-22.33</ele><time>2023-08-30T10:56:58Z</time></trkpt><trkpt lat="51.9428179879" lon="-2.1727351472"><ele>-22.34</ele><time>2023-08-30T10:57:15Z</time></trkpt><trkpt lat="51.9428378530" lon="-2.1724902280"><ele>-22.43</ele><time>2023-08-30T10:57:35Z</time></trkpt><trkpt lat="51.9428686984" lon="-2.1723380964"><ele>-22.70</ele><time>2023-08-30T10:57:57Z</time></trkpt><trkpt lat="51.9428955205" lon="-2.1721214242"><ele>-22.70</ele><time>2023-08-30T10:58:18Z</time></trkpt><trkpt lat="51.9429091830" lon="-2.1719515231"><ele>-22.70</ele><time>2023-08-30T10:58:39Z</time></trkpt><trkpt lat="51.9429308921" lon="-2.1717475913"><ele>-22.70</ele><time>2023-08-30T10:59:02Z</time></trkpt><trkpt lat="51.9429608155" lon="-2.1715683863"><ele>-22.70</ele><time>2023-08-30T10:59:22Z</time></trkpt><trkpt lat="51.9429853745" lon="-2.1713724174"><ele>-22.70</ele><time>2023-08-30T10:59:44Z</time></trkpt><trkpt lat="51.9430059101" lon="-2.1712220460"><ele>-22.70</ele><time>2023-08-30T11:00:05Z</time></trkpt><trkpt lat="51.9430053234" lon="-2.1711136680"><ele>-22.70</ele><time>2023-08-30T11:00:21Z</time></trkpt><trkpt lat="51.9430188183" lon="-2.1709502209"><ele>-22.70</ele><time>2023-08-30T11:00:42Z</time></trkpt><trkpt lat="51.9430212490" lon="-2.1709006839"><ele>-22.70</ele><time>2023-08-30T11:01:07Z</time></trkpt><trkpt lat="51.9430468976" lon="-2.1707893722"><ele>-22.70</ele><time>2023-08-30T11:01:30Z</time></trkpt><trkpt lat="51.9430431258" lon="-2.1707617957"><ele>-22.70</ele><time>2023-08-30T11:02:04Z</time></trkpt><trkpt lat="51.9430779107" lon="-2.1705877874"><ele>-22.72</ele><time>2023-08-30T11:02:19Z</time></trkpt><trkpt lat="51.9431056548" lon="-2.1703717019"><ele>-22.81</ele><time>2023-08-30T11:02:34Z</time></trkpt><trkpt lat="51.9431277830" lon="-2.1701039001"><ele>-22.53</ele><time>2023-08-30T11:02:59Z</time></trkpt><trkpt lat="51.9431639090" lon="-2.1698374394"><ele>-22.43</ele><time>2023-08-30T11:03:24Z</time></trkpt><trkpt lat="51.9431617297" lon="-2.1697564702"><ele>-22.37</ele><time>2023-08-30T11:03:45Z</time></trkpt><trkpt lat="51.9431745540" lon="-2.1696655266"><ele>-22.60</ele><time>2023-08-30T11:04:08Z</time></trkpt><trkpt lat="51.9432036392" lon="-2.1694209427"><ele>-22.61</ele><time>2023-08-30T11:04:28Z</time></trkpt><trkpt lat="51.9432307128" lon="-2.1692755166"><ele>-22.61</ele><time>2023-08-30T11:04:49Z</time></trkpt><trkpt lat="51.9432446267" lon="-2.1691968106"><ele>-22.61</ele><time>2023-08-30T11:05:06Z</time></trkpt><trkpt lat="51.9432597142" lon="-2.1689409111"><ele>-22.61</ele><time>2023-08-30T11:05:25Z</time></trkpt><trkpt lat="51.9432947505" lon="-2.1686230693"><ele>-21.95</ele><time>2023-08-30T11:05:45Z</time></trkpt><trkpt lat="51.9432967622" lon="-2.1683610510"><ele>-21.94</ele><time>2023-08-30T11:06:04Z</time></trkpt><trkpt lat="51.9432991929" lon="-2.1680928301"><ele>-21.93</ele><time>2023-08-30T11:06:28Z</time></trkpt><trkpt lat="51.9432972651" lon="-2.1678938437"><ele>-21.76</ele><time>2023-08-30T11:06:46Z</time></trkpt><trkpt lat="51.9432976842" lon="-2.1678686142"><ele>-21.79</ele><time>2023-08-30T11:07:05Z</time></trkpt><trkpt lat="51.9432916492" lon="-2.1677574702"><ele>-21.75</ele><time>2023-08-30T11:07:39Z</time></trkpt><trkpt lat="51.9432671741" lon="-2.1676561330"><ele>-21.75</ele><time>2023-08-30T11:07:58Z</time></trkpt><trkpt lat="51.9432509970" lon="-2.1676374413"><ele>-21.75</ele><time>2023-08-30T11:08:20Z</time></trkpt><trkpt lat="51.9432344846" lon="-2.1676121280"><ele>-21.75</ele><time>2023-08-30T11:08:45Z</time></trkpt><trkpt lat="51.9432354905" lon="-2.1674316656"><ele>-21.75</ele><time>2023-08-30T11:09:06Z</time></trkpt><trkpt lat="51.9432483986" lon="-2.1672227047"><ele>-21.75</ele><time>2023-08-30T11:09:28Z</time></trkpt><trkpt lat="51.9432416093" lon="-2.1671980619"><ele>-19.26</ele><time>2023-08-30T11:09:37Z</time></trkpt><trkpt lat="51.9432110153" lon="-2.1670961380"><ele>-18.80</ele><time>2023-08-30T11:09:57Z</time></trkpt><trkpt lat="51.9431716204" lon="-2.1668834891"><ele>-18.79</ele><time>2023-08-30T11:10:16Z</time></trkpt><trkpt lat="51.9431537669" lon="-2.1668090578"><ele>-18.88</ele><time>2023-08-30T11:10:33Z</time></trkpt><trkpt lat="51.9431252684" lon="-2.1667101514"><ele>-18.97</ele><time>2023-08-30T11:10:56Z</time></trkpt><trkpt lat="51.9431017991" lon="-2.1666121669"><ele>-18.97</ele><time>2023-08-30T11:11:20Z</time></trkpt><trkpt lat="51.9430286251" lon="-2.1664854325"><ele>-18.96</ele><time>2023-08-30T11:11:42Z</time></trkpt><trkpt lat="51.9429653417" lon="-2.1662695147"><ele>-18.96</ele><time>2023-08-30T11:12:03Z</time></trkpt><trkpt lat="51.9428697880" lon="-2.1661219094"><ele>-17.16</ele><time>2023-08-30T11:12:23Z</time></trkpt><trkpt lat="51.9428224303" lon="-2.1660348214"><ele>-16.74</ele><time>2023-08-30T11:12:40Z</time></trkpt><trkpt lat="51.9427505974" lon="-2.1657524351"><ele>-15.68</ele><time>2023-08-30T11:13:05Z</time></trkpt><trkpt lat="51.9426538702" lon="-2.1655909996"><ele>-15.04</ele><time>2023-08-30T11:13:27Z</time></trkpt><trkpt lat="51.9425622560" lon="-2.1653820388"><ele>-13.52</ele><time>2023-08-30T11:13:53Z</time></trkpt><trkpt lat="51.9424661994" lon="-2.1651861537"><ele>-12.27</ele><time>2023-08-30T11:14:16Z</time></trkpt><trkpt lat="51.9423796143" lon="-2.1650868282"><ele>-11.43</ele><time>2023-08-30T11:14:37Z</time></trkpt><trkpt lat="51.9423101284" lon="-2.1649683081"><ele>-10.97</ele><time>2023-08-30T11:15:02Z</time></trkpt><trkpt lat="51.9422383793" lon="-2.1648507938"><ele>-10.18</ele><time>2023-08-30T11:15:28Z</time></trkpt><trkpt lat="51.9421950448" lon="-2.1647983231"><ele>-10.10</ele><time>2023-08-30T11:15:33Z</time></trkpt><trkpt lat="51.9421362877" lon="-2.1646559983"><ele>-9.40</ele><time>2023-08-30T11:15:48Z</time></trkpt><trkpt lat="51.9420894329" lon="-2.1645165235"><ele>-8.94</ele><time>2023-08-30T11:16:02Z</time></trkpt><trkpt lat="51.9420243893" lon="-2.1643397491"><ele>-8.46</ele><time>2023-08-30T11:16:20Z</time></trkpt><trkpt lat="51.9420079608" lon="-2.1642510686"><ele>-8.16</ele><time>2023-08-30T11:16:29Z</time></trkpt><trkpt lat="51.9419354573" lon="-2.1641318779"><ele>-7.91</ele><time>2023-08-30T11:16:39Z</time></trkpt><trkpt lat="51.9418820646" lon="-2.1638369188"><ele>-7.76</ele><time>2023-08-30T11:16:59Z</time></trkpt><trkpt lat="51.9419254828" lon="-2.1636822727"><ele>-7.26</ele><time>2023-08-30T11:17:16Z</time></trkpt><trkpt lat="51.9420370460" lon="-2.1636201628"><ele>-6.81</ele><time>2023-08-30T11:17:35Z</time></trkpt><trkpt lat="51.9420580845" lon="-2.1635961905"><ele>-6.77</ele><time>2023-08-30T11:17:38Z</time></trkpt><trkpt lat="51.9422018342" lon="-2.1635058336"><ele>-5.99</ele><time>2023-08-30T11:17:56Z</time></trkpt><trkpt lat="51.9423035067" lon="-2.1634784248"><ele>-7.64</ele><time>2023-08-30T11:18:11Z</time></trkpt><trkpt lat="51.9423461705" lon="-2.1634945180"><ele>-4.51</ele><time>2023-08-30T11:18:16Z</time></trkpt><trkpt lat="51.9424364436" lon="-2.1635414567"><ele>-4.76</ele><time>2023-08-30T11:18:33Z</time></trkpt><trkpt lat="51.9424409699" lon="-2.1635329910"><ele>-4.41</ele><time>2023-08-30T11:18:58Z</time></trkpt><trkpt lat="51.9424575660" lon="-2.1635295544"><ele>-3.91</ele><time>2023-08-30T11:19:23Z</time></trkpt><trkpt lat="51.9424444903" lon="-2.1635607351"><ele>-4.73</ele><time>2023-08-30T11:19:39Z</time></trkpt></trkseg></trk></gpx>